sensor_id;sensor_type;location;lat;lon;timestamp;pressure;altitude;pressure_sealevel;temperature;humidity
61205;BME280;47068;55.780;37.520;2023-07-13T00:00:25;98971.06;;;14.93;68.34
61205;BME280;47068;55.780;37.520;2023-07-13T00:02:51;98978.28;;;14.93;68.70
61205;BME280;47068;55.780;37.520;2023-07-13T00:05:23;98978.28;;;14.93;69.03
61205;BME280;47068;55.780;37.520;2023-07-13T00:07:49;98988.56;;;14.96;68.97
61205;BME280;47068;55.780;37.520;2023-07-13T00:10:14;98986.31;;;14.93;69.33
61205;BME280;47068;55.780;37.520;2023-07-13T00:12:40;98984.66;;;14.92;69.25
61205;BME280;47068;55.780;37.520;2023-07-13T00:15:10;98992.25;;;14.88;69.59
61205;BME280;47068;55.780;37.520;2023-07-13T00:17:37;98987.75;;;14.89;69.78
61205;BME280;47068;55.780;37.520;2023-07-13T00:20:04;98984.44;;;14.87;69.84
61205;BME280;47068;55.780;37.520;2023-07-13T00:22:29;98971.69;;;14.82;70.06
61205;BME280;47068;55.780;37.520;2023-07-13T00:24:55;98971.69;;;14.82;70.05
61205;BME280;47068;55.780;37.520;2023-07-13T00:27:23;98978.69;;;14.83;70.13
61205;BME280;47068;55.780;37.520;2023-07-13T00:29:48;98982.59;;;14.81;69.90
61205;BME280;47068;55.780;37.520;2023-07-13T00:32:13;98983.03;;;14.78;70.12
61205;BME280;47068;55.780;37.520;2023-07-13T00:34:39;98982.41;;;14.76;70.55
61205;BME280;47068;55.780;37.520;2023-07-13T00:37:05;98979.94;;;14.68;70.46
61205;BME280;47068;55.780;37.520;2023-07-13T00:39:34;98977.25;;;14.68;71.06
61205;BME280;47068;55.780;37.520;2023-07-13T00:42:00;98974.59;;;14.68;70.79
61205;BME280;47068;55.780;37.520;2023-07-13T00:44:26;98977.88;;;14.70;71.08
61205;BME280;47068;55.780;37.520;2023-07-13T00:46:51;98972.91;;;14.73;70.67
61205;BME280;47068;55.780;37.520;2023-07-13T00:49:19;98969.84;;;14.76;70.64
61205;BME280;47068;55.780;37.520;2023-07-13T00:54:11;98974.78;;;14.79;70.70
61205;BME280;47068;55.780;37.520;2023-07-13T00:56:38;98980.56;;;14.76;70.96
61205;BME280;47068;55.780;37.520;2023-07-13T00:59:04;98972.91;;;14.73;70.73
61205;BME280;47068;55.780;37.520;2023-07-13T01:01:31;98976.22;;;14.69;70.73
61205;BME280;47068;55.780;37.520;2023-07-13T01:03:57;98974.19;;;14.71;70.83
61205;BME280;47068;55.780;37.520;2023-07-13T01:06:22;98968.81;;;14.71;70.82
61205;BME280;47068;55.780;37.520;2023-07-13T01:08:47;98966.16;;;14.64;70.81
61205;BME280;47068;55.780;37.520;2023-07-13T01:11:13;98970.06;;;14.62;71.01
61205;BME280;47068;55.780;37.520;2023-07-13T01:13:42;98961.00;;;14.63;71.43
61205;BME280;47068;55.780;37.520;2023-07-13T01:16:50;98962.22;;;14.67;71.16
61205;BME280;47068;55.780;37.520;2023-07-13T01:18:56;98965.97;;;14.66;71.32
61205;BME280;47068;55.780;37.520;2023-07-13T01:21:27;98970.69;;;14.64;71.65
61205;BME280;47068;55.780;37.520;2023-07-13T01:23:52;98975.41;;;14.62;72.04
61205;BME280;47068;55.780;37.520;2023-07-13T01:26:17;98962.66;;;14.64;71.50
61205;BME280;47068;55.780;37.520;2023-07-13T01:28:43;98969.22;;;14.61;71.79
61205;BME280;47068;55.780;37.520;2023-07-13T01:31:09;98963.69;;;14.63;72.00
61205;BME280;47068;55.780;37.520;2023-07-13T01:33:36;98958.53;;;14.68;71.66
61205;BME280;47068;55.780;37.520;2023-07-13T01:36:01;98954.00;;;14.68;71.41
61205;BME280;47068;55.780;37.520;2023-07-13T01:38:29;98958.53;;;14.68;71.61
61205;BME280;47068;55.780;37.520;2023-07-13T01:40:55;98960.16;;;14.69;71.75
61205;BME280;47068;55.780;37.520;2023-07-13T01:43:20;98940.41;;;14.70;71.36
61205;BME280;47068;55.780;37.520;2023-07-13T01:45:46;98951.72;;;14.72;71.34
61205;BME280;47068;55.780;37.520;2023-07-13T01:48:12;98958.94;;;14.71;71.47
61205;BME280;47068;55.780;37.520;2023-07-13T01:50:37;98956.06;;;14.73;71.42
61205;BME280;47068;55.780;37.520;2023-07-13T01:53:03;98952.56;;;14.72;71.36
61205;BME280;47068;55.780;37.520;2023-07-13T01:55:28;98949.25;;;14.77;71.43
61205;BME280;47068;55.780;37.520;2023-07-13T01:57:54;98951.94;;;14.77;71.22
61205;BME280;47068;55.780;37.520;2023-07-13T02:00:20;98952.53;;;14.79;71.47
61205;BME280;47068;55.780;37.520;2023-07-13T02:02:45;98947.19;;;14.79;71.47
61205;BME280;47068;55.780;37.520;2023-07-13T02:05:11;98946.56;;;14.77;71.12
61205;BME280;47068;55.780;37.520;2023-07-13T02:07:37;98937.72;;;14.76;71.72
61205;BME280;47068;55.780;37.520;2023-07-13T02:10:02;98940.78;;;14.80;71.30
61205;BME280;47068;55.780;37.520;2023-07-13T02:12:27;98938.72;;;14.82;71.57
61205;BME280;47068;55.780;37.520;2023-07-13T02:14:53;98928.44;;;14.85;71.36
61205;BME280;47068;55.780;37.520;2023-07-13T02:17:18;98935.84;;;14.83;71.27
61205;BME280;47068;55.780;37.520;2023-07-13T02:19:43;98932.75;;;14.80;71.30
61205;BME280;47068;55.780;37.520;2023-07-13T02:22:09;98937.31;;;14.79;71.08
61205;BME280;47068;55.780;37.520;2023-07-13T02:24:34;98934.19;;;14.82;71.08
61205;BME280;47068;55.780;37.520;2023-07-13T02:26:59;98942.22;;;14.82;71.31
61205;BME280;47068;55.780;37.520;2023-07-13T02:29:25;98936.66;;;14.84;71.21
61205;BME280;47068;55.780;37.520;2023-07-13T02:31:50;98929.84;;;14.88;71.29
61205;BME280;47068;55.780;37.520;2023-07-13T02:34:15;98926.75;;;14.91;71.00
61205;BME280;47068;55.780;37.520;2023-07-13T02:36:40;98935.63;;;14.85;70.86
61205;BME280;47068;55.780;37.520;2023-07-13T02:39:06;98930.09;;;14.86;71.09
61205;BME280;47068;55.780;37.520;2023-07-13T02:41:32;98924.72;;;14.93;70.99
61205;BME280;47068;55.780;37.520;2023-07-13T02:43:57;98927.56;;;14.98;70.51
61205;BME280;47068;55.780;37.520;2023-07-13T02:46:28;98925.50;;;15.00;70.82
61205;BME280;47068;55.780;37.520;2023-07-13T02:48:53;98923.41;;;15.02;70.47
61205;BME280;47068;55.780;37.520;2023-07-13T02:51:19;98925.06;;;15.03;70.41
61205;BME280;47068;55.780;37.520;2023-07-13T02:53:44;98926.09;;;15.02;70.77
61205;BME280;47068;55.780;37.520;2023-07-13T02:56:09;98929.78;;;15.08;70.38
61205;BME280;47068;55.780;37.520;2023-07-13T02:58:35;98926.31;;;15.07;70.06
61205;BME280;47068;55.780;37.520;2023-07-13T03:01:05;98922.19;;;15.05;70.28
61205;BME280;47068;55.780;37.520;2023-07-13T03:03:31;98919.31;;;15.00;70.11
61205;BME280;47068;55.780;37.520;2023-07-13T03:06:00;98923.25;;;14.97;70.26
61205;BME280;47068;55.780;37.520;2023-07-13T03:08:26;98918.50;;;14.99;70.45
61205;BME280;47068;55.780;37.520;2023-07-13T03:11:01;98917.06;;;14.96;70.28
61205;BME280;47068;55.780;37.520;2023-07-13T03:13:26;98914.59;;;14.95;70.69
61205;BME280;47068;55.780;37.520;2023-07-13T03:15:52;98898.72;;;15.00;70.59
61205;BME280;47068;55.780;37.520;2023-07-13T03:18:17;98904.47;;;15.04;70.74
61205;BME280;47068;55.780;37.520;2023-07-13T03:20:42;98915.97;;;15.11;70.41
61205;BME280;47068;55.780;37.520;2023-07-13T03:23:08;98914.75;;;15.13;70.24
61205;BME280;47068;55.780;37.520;2023-07-13T03:25:33;98919.28;;;15.13;70.46
61205;BME280;47068;55.780;37.520;2023-07-13T03:27:58;98921.53;;;15.09;70.16
61205;BME280;47068;55.780;37.520;2023-07-13T03:30:24;98929.81;;;15.01;70.60
61205;BME280;47068;55.780;37.520;2023-07-13T03:32:49;98927.38;;;15.00;70.46
61205;BME280;47068;55.780;37.520;2023-07-13T03:35:14;98926.72;;;15.04;70.40
61205;BME280;47068;55.780;37.520;2023-07-13T03:37:40;98926.31;;;15.07;70.41
61205;BME280;47068;55.780;37.520;2023-07-13T03:40:07;98931.66;;;15.07;70.58
61205;BME280;47068;55.780;37.520;2023-07-13T03:42:34;98936.59;;;15.10;70.78
61205;BME280;47068;55.780;37.520;2023-07-13T03:45:00;98920.94;;;15.14;70.68
61205;BME280;47068;55.780;37.520;2023-07-13T03:47:25;98931.19;;;15.23;70.64
61205;BME280;47068;55.780;37.520;2023-07-13T03:49:50;98927.88;;;15.28;70.44
61205;BME280;47068;55.780;37.520;2023-07-13T03:52:16;98931.56;;;15.33;70.39
61205;BME280;47068;55.780;37.520;2023-07-13T03:54:41;98936.88;;;15.40;70.27
61205;BME280;47068;55.780;37.520;2023-07-13T03:57:07;98928.81;;;15.47;69.94
61205;BME280;47068;55.780;37.520;2023-07-13T03:59:33;98930.47;;;15.48;69.81
61205;BME280;47068;55.780;37.520;2023-07-13T04:01:58;98924.66;;;15.51;69.66
61205;BME280;47068;55.780;37.520;2023-07-13T04:04:24;98930.47;;;15.54;69.65
61205;BME280;47068;55.780;37.520;2023-07-13T04:06:49;98925.66;;;15.63;69.58
61205;BME280;47068;55.780;37.520;2023-07-13T04:09:14;98929.72;;;15.72;69.16
61205;BME280;47068;55.780;37.520;2023-07-13T04:11:40;98926.06;;;15.66;68.68
61205;BME280;47068;55.780;37.520;2023-07-13T04:14:05;98936.16;;;15.64;68.99
61205;BME280;47068;55.780;37.520;2023-07-13T04:16:31;98935.13;;;15.65;69.02
61205;BME280;47068;55.780;37.520;2023-07-13T04:18:56;98937.16;;;15.70;69.01
61205;BME280;47068;55.780;37.520;2023-07-13T04:21:25;98938.41;;;15.74;69.06
61205;BME280;47068;55.780;37.520;2023-07-13T04:23:50;98939.81;;;15.76;68.86
61205;BME280;47068;55.780;37.520;2023-07-13T04:26:16;98935.72;;;15.74;68.94
61205;BME280;47068;55.780;37.520;2023-07-13T04:28:41;98932.63;;;15.70;68.75
61205;BME280;47068;55.780;37.520;2023-07-13T04:31:07;98938.81;;;15.71;69.13
61205;BME280;47068;55.780;37.520;2023-07-13T04:33:32;98937.38;;;15.75;69.12
61205;BME280;47068;55.780;37.520;2023-07-13T04:35:57;98928.88;;;15.78;69.06
61205;BME280;47068;55.780;37.520;2023-07-13T04:38:26;98924.53;;;15.77;69.03
61205;BME280;47068;55.780;37.520;2023-07-13T04:40:53;98927.47;;;15.75;68.80
61205;BME280;47068;55.780;37.520;2023-07-13T04:43:19;98917.56;;;15.76;69.03
61205;BME280;47068;55.780;37.520;2023-07-13T04:45:44;98918.59;;;15.75;68.87
61205;BME280;47068;55.780;37.520;2023-07-13T04:48:09;98916.06;;;15.80;68.87
61205;BME280;47068;55.780;37.520;2023-07-13T04:50:38;98915.66;;;15.83;69.09
61205;BME280;47068;55.780;37.520;2023-07-13T04:53:03;98911.84;;;15.91;68.39
61205;BME280;47068;55.780;37.520;2023-07-13T04:55:29;98925.69;;;15.94;68.47
61205;BME280;47068;55.780;37.520;2023-07-13T04:57:56;98924.19;;;15.98;68.47
61205;BME280;47068;55.780;37.520;2023-07-13T05:00:21;98927.28;;;16.02;68.08
61205;BME280;47068;55.780;37.520;2023-07-13T05:02:46;98935.50;;;16.07;68.09
61205;BME280;47068;55.780;37.520;2023-07-13T05:05:12;98935.84;;;16.17;67.75
61205;BME280;47068;55.780;37.520;2023-07-13T05:07:37;98936.38;;;16.26;67.62
61205;BME280;47068;55.780;37.520;2023-07-13T05:10:03;98947.81;;;16.39;67.17
61205;BME280;47068;55.780;37.520;2023-07-13T05:12:29;98941.06;;;16.55;66.65
61205;BME280;47068;55.780;37.520;2023-07-13T05:14:54;98940.34;;;16.91;66.19
61205;BME280;47068;55.780;37.520;2023-07-13T05:17:19;98944.75;;;17.22;65.21
61205;BME280;47068;55.780;37.520;2023-07-13T05:19:45;98943.41;;;17.49;64.19
61205;BME280;47068;55.780;37.520;2023-07-13T05:22:10;98945.25;;;17.67;63.68
61205;BME280;47068;55.780;37.520;2023-07-13T05:24:35;98939.47;;;17.82;63.49
61205;BME280;47068;55.780;37.520;2023-07-13T05:27:01;98939.63;;;17.98;62.53
61205;BME280;47068;55.780;37.520;2023-07-13T05:29:26;98941.34;;;17.93;62.40
61205;BME280;47068;55.780;37.520;2023-07-13T05:31:52;98931.28;;;17.88;62.46
61205;BME280;47068;55.780;37.520;2023-07-13T05:34:17;98939.47;;;17.82;62.36
61205;BME280;47068;55.780;37.520;2023-07-13T05:36:43;98925.19;;;17.81;62.33
61205;BME280;47068;55.780;37.520;2023-07-13T05:39:08;98919.09;;;17.86;61.80
61205;BME280;47068;55.780;37.520;2023-07-13T05:41:33;98923.81;;;17.90;61.96
61205;BME280;47068;55.780;37.520;2023-07-13T05:43:59;98921.16;;;18.02;61.30
61205;BME280;47068;55.780;37.520;2023-07-13T05:46:24;98914.28;;;18.18;60.57
61205;BME280;47068;55.780;37.520;2023-07-13T05:48:49;98926.34;;;18.27;59.89
61205;BME280;47068;55.780;37.520;2023-07-13T05:51:15;98927.19;;;18.39;59.86
61205;BME280;47068;55.780;37.520;2023-07-13T05:53:40;98922.84;;;18.49;59.88
61205;BME280;47068;55.780;37.520;2023-07-13T05:56:05;98917.75;;;18.60;59.34
61205;BME280;47068;55.780;37.520;2023-07-13T05:58:31;98922.41;;;18.53;59.21
61205;BME280;47068;55.780;37.520;2023-07-13T06:01:04;98910.91;;;18.45;59.60
61205;BME280;47068;55.780;37.520;2023-07-13T06:03:30;98919.00;;;18.45;59.54
61205;BME280;47068;55.780;37.520;2023-07-13T06:05:56;98920.03;;;18.44;59.45
61205;BME280;47068;55.780;37.520;2023-07-13T06:08:21;98908.34;;;18.50;59.22
61205;BME280;47068;55.780;37.520;2023-07-13T06:10:47;98911.63;;;18.53;58.75
61205;BME280;47068;55.780;37.520;2023-07-13T06:13:12;98916.75;;;18.54;58.81
61205;BME280;47068;55.780;37.520;2023-07-13T06:15:38;98911.63;;;18.53;58.13
61205;BME280;47068;55.780;37.520;2023-07-13T06:18:03;98909.28;;;18.68;56.97
61205;BME280;47068;55.780;37.520;2023-07-13T06:20:28;98896.16;;;18.83;57.17
61205;BME280;47068;55.780;37.520;2023-07-13T06:22:54;98893.56;;;18.88;57.11
61205;BME280;47068;55.780;37.520;2023-07-13T06:25:19;98899.66;;;18.95;57.22
61205;BME280;47068;55.780;37.520;2023-07-13T06:27:45;98893.53;;;19.11;56.90
61205;BME280;47068;55.780;37.520;2023-07-13T06:30:10;98884.69;;;19.27;56.55
61205;BME280;47068;55.780;37.520;2023-07-13T06:32:36;98886.44;;;19.34;56.23
61205;BME280;47068;55.780;37.520;2023-07-13T06:35:01;98882.19;;;19.38;55.96
61205;BME280;47068;55.780;37.520;2023-07-13T06:37:26;98882.91;;;19.33;54.80
61205;BME280;47068;55.780;37.520;2023-07-13T06:39:52;98883.00;;;19.38;55.03
61205;BME280;47068;55.780;37.520;2023-07-13T06:42:17;98895.19;;;19.41;54.85
61205;BME280;47068;55.780;37.520;2023-07-13T06:44:42;98898.59;;;19.36;54.97
61205;BME280;47068;55.780;37.520;2023-07-13T06:47:08;98901.72;;;19.16;54.57
61205;BME280;47068;55.780;37.520;2023-07-13T06:49:33;98893.47;;;18.95;55.56
61205;BME280;47068;55.780;37.520;2023-07-13T06:51:58;98889.38;;;18.80;56.27
61205;BME280;47068;55.780;37.520;2023-07-13T06:54:24;98892.91;;;18.58;56.77
61205;BME280;47068;55.780;37.520;2023-07-13T06:56:50;98895.81;;;18.44;57.15
61205;BME280;47068;55.780;37.520;2023-07-13T06:59:15;98897.44;;;18.34;57.81
61205;BME280;47068;55.780;37.520;2023-07-13T07:01:40;98900.22;;;18.27;57.55
61205;BME280;47068;55.780;37.520;2023-07-13T07:04:05;98894.72;;;18.22;57.99
61205;BME280;47068;55.780;37.520;2023-07-13T07:06:31;98886.19;;;18.25;58.04
61205;BME280;47068;55.780;37.520;2023-07-13T07:08:56;98883.63;;;18.30;57.58
61205;BME280;47068;55.780;37.520;2023-07-13T07:11:23;98883.13;;;18.33;57.59
61205;BME280;47068;55.780;37.520;2023-07-13T07:13:49;98883.63;;;18.42;57.06
61205;BME280;47068;55.780;37.520;2023-07-13T07:16:14;98887.41;;;18.64;56.73
61205;BME280;47068;55.780;37.520;2023-07-13T07:18:40;98876.47;;;18.82;55.62
61205;BME280;47068;55.780;37.520;2023-07-13T07:21:05;98884.22;;;18.79;55.13
61205;BME280;47068;55.780;37.520;2023-07-13T07:23:31;98875.91;;;18.80;54.76
61205;BME280;47068;55.780;37.520;2023-07-13T07:25:56;98888.06;;;18.83;54.78
61205;BME280;47068;55.780;37.520;2023-07-13T07:28:21;98892.88;;;18.81;54.89
61205;BME280;47068;55.780;37.520;2023-07-13T07:30:47;98897.69;;;18.67;54.89
61205;BME280;47068;55.780;37.520;2023-07-13T07:33:12;98901.09;;;18.63;55.35
61205;BME280;47068;55.780;37.520;2023-07-13T07:35:38;98909.19;;;18.63;55.56
61205;BME280;47068;55.780;37.520;2023-07-13T07:38:03;98908.13;;;18.64;55.85
61205;BME280;47068;55.780;37.520;2023-07-13T07:40:29;98912.69;;;18.63;56.17
61205;BME280;47068;55.780;37.520;2023-07-13T07:42:54;98912.91;;;18.62;55.96
61205;BME280;47068;55.780;37.520;2023-07-13T07:45:20;98912.81;;;18.57;56.28
61205;BME280;47068;55.780;37.520;2023-07-13T07:47:45;98916.56;;;18.56;56.43
61205;BME280;47068;55.780;37.520;2023-07-13T07:50:11;98921.56;;;18.52;57.10
61205;BME280;47068;55.780;37.520;2023-07-13T07:52:36;98917.00;;;18.53;57.24
61205;BME280;47068;55.780;37.520;2023-07-13T07:55:01;98917.47;;;18.49;57.71
61205;BME280;47068;55.780;37.520;2023-07-13T07:57:27;98916.66;;;18.49;58.25
61205;BME280;47068;55.780;37.520;2023-07-13T07:59:52;98919.56;;;18.47;58.34
61205;BME280;47068;55.780;37.520;2023-07-13T08:02:17;98918.41;;;18.43;58.54
61205;BME280;47068;55.780;37.520;2023-07-13T08:04:43;98915.59;;;18.38;58.72
61205;BME280;47068;55.780;37.520;2023-07-13T08:07:08;98909.13;;;18.39;59.10
61205;BME280;47068;55.780;37.520;2023-07-13T08:09:34;98912.31;;;18.36;59.26
61205;BME280;47068;55.780;37.520;2023-07-13T08:11:59;98921.53;;;18.40;59.25
61205;BME280;47068;55.780;37.520;2023-07-13T08:14:25;98916.66;;;18.49;59.38
61205;BME280;47068;55.780;37.520;2023-07-13T08:16:50;98910.44;;;18.48;59.36
61205;BME280;47068;55.780;37.520;2023-07-13T08:19:16;98915.81;;;18.48;58.96
61205;BME280;47068;55.780;37.520;2023-07-13T08:21:41;98917.25;;;18.51;58.37
61205;BME280;47068;55.780;37.520;2023-07-13T08:24:08;98915.94;;;18.54;58.32
61205;BME280;47068;55.780;37.520;2023-07-13T08:26:33;98918.28;;;18.50;58.31
61205;BME280;47068;55.780;37.520;2023-07-13T08:28:59;98916.41;;;18.39;58.80
61205;BME280;47068;55.780;37.520;2023-07-13T08:31:24;98911.16;;;18.32;59.08
61205;BME280;47068;55.780;37.520;2023-07-13T08:33:49;98914.88;;;18.31;59.87
61205;BME280;47068;55.780;37.520;2023-07-13T08:36:15;98913.25;;;18.30;59.50
61205;BME280;47068;55.780;37.520;2023-07-13T08:38:40;98907.59;;;18.20;59.75
61205;BME280;47068;55.780;37.520;2023-07-13T08:41:10;98902.44;;;18.07;59.99
61205;BME280;47068;55.780;37.520;2023-07-13T08:43:36;98917.97;;;18.05;59.90
61205;BME280;47068;55.780;37.520;2023-07-13T08:48:35;98929.00;;;18.15;60.39
61205;BME280;47068;55.780;37.520;2023-07-13T08:51:26;98931.47;;;18.17;60.72
61205;BME280;47068;55.780;37.520;2023-07-13T08:53:50;98938.75;;;18.16;61.02
61205;BME280;47068;55.780;37.520;2023-07-13T08:56:18;98939.91;;;18.20;60.80
61205;BME280;47068;55.780;37.520;2023-07-13T08:58:45;98936.75;;;18.23;61.31
61205;BME280;47068;55.780;37.520;2023-07-13T09:01:15;98938.25;;;18.19;63.27
61205;BME280;47068;55.780;37.520;2023-07-13T09:04:28;98937.69;;;18.17;63.84
61205;BME280;47068;55.780;37.520;2023-07-13T09:06:46;98939.06;;;18.08;63.55
61205;BME280;47068;55.780;37.520;2023-07-13T09:11:51;98947.47;;;18.00;64.70
61205;BME280;47068;55.780;37.520;2023-07-13T09:16:46;98952.63;;;18.01;65.22
61205;BME280;47068;55.780;37.520;2023-07-13T09:19:14;98950.63;;;17.97;65.26
61205;BME280;47068;55.780;37.520;2023-07-13T09:21:41;98956.56;;;17.87;66.55
61205;BME280;47068;55.780;37.520;2023-07-13T09:26:52;98950.09;;;17.77;67.02
61205;BME280;47068;55.780;37.520;2023-07-13T09:29:29;98959.31;;;17.69;67.24
61205;BME280;47068;55.780;37.520;2023-07-13T09:31:58;98963.47;;;17.65;67.98
61205;BME280;47068;55.780;37.520;2023-07-13T09:34:25;98960.22;;;17.63;68.16
61205;BME280;47068;55.780;37.520;2023-07-13T09:36:51;98960.44;;;17.61;68.61
61205;BME280;47068;55.780;37.520;2023-07-13T09:39:25;98960.25;;;17.56;68.50
61205;BME280;47068;55.780;37.520;2023-07-13T09:41:54;98958.09;;;17.47;69.06
61205;BME280;47068;55.780;37.520;2023-07-13T09:44:29;98959.66;;;17.36;69.40
61205;BME280;47068;55.780;37.520;2023-07-13T09:46:58;98962.59;;;17.35;69.87
61205;BME280;47068;55.780;37.520;2023-07-13T09:49:27;98963.94;;;17.25;70.43
61205;BME280;47068;55.780;37.520;2023-07-13T09:51:59;98965.66;;;17.20;70.32
61205;BME280;47068;55.780;37.520;2023-07-13T09:54:25;98964.47;;;17.16;71.00
61205;BME280;47068;55.780;37.520;2023-07-13T09:56:54;98959.97;;;17.10;71.39
61205;BME280;47068;55.780;37.520;2023-07-13T09:59:20;98956.47;;;17.09;71.58
61205;BME280;47068;55.780;37.520;2023-07-13T10:01:46;98956.72;;;17.08;72.18
61205;BME280;47068;55.780;37.520;2023-07-13T10:04:14;98955.44;;;17.10;72.33
61205;BME280;47068;55.780;37.520;2023-07-13T10:06:43;98958.13;;;17.10;72.34
61205;BME280;47068;55.780;37.520;2023-07-13T10:09:09;98951.34;;;17.08;72.54
61205;BME280;47068;55.780;37.520;2023-07-13T10:11:35;98958.78;;;17.06;72.60
61205;BME280;47068;55.780;37.520;2023-07-13T10:14:07;98960.06;;;17.03;72.62
61205;BME280;47068;55.780;37.520;2023-07-13T10:16:34;98968.34;;;17.02;73.06
61205;BME280;47068;55.780;37.520;2023-07-13T10:19:13;98965.72;;;16.95;73.65
61205;BME280;47068;55.780;37.520;2023-07-13T10:21:55;98960.59;;;16.93;73.86
61205;BME280;47068;55.780;37.520;2023-07-13T10:24:21;98957.50;;;16.90;73.80
61205;BME280;47068;55.780;37.520;2023-07-13T10:26:48;98955.31;;;16.80;73.42
61205;BME280;47068;55.780;37.520;2023-07-13T10:29:14;98954.97;;;16.77;73.81
61205;BME280;47068;55.780;37.520;2023-07-13T10:31:41;98962.19;;;16.76;73.29
61205;BME280;47068;55.780;37.520;2023-07-13T10:34:10;98961.00;;;16.72;73.63
61205;BME280;47068;55.780;37.520;2023-07-13T10:36:43;98967.84;;;16.68;73.38
61205;BME280;47068;55.780;37.520;2023-07-13T10:39:09;98968.31;;;16.65;73.84
61205;BME280;47068;55.780;37.520;2023-07-13T10:41:39;98975.91;;;16.68;73.88
61205;BME280;47068;55.780;37.520;2023-07-13T10:44:05;98971.00;;;16.59;73.74
61205;BME280;47068;55.780;37.520;2023-07-13T10:46:37;98975.38;;;16.53;74.02
61205;BME280;47068;55.780;37.520;2023-07-13T10:49:04;98977.47;;;16.51;74.47
61205;BME280;47068;55.780;37.520;2023-07-13T10:51:30;98975.00;;;16.49;74.57
61205;BME280;47068;55.780;37.520;2023-07-13T10:56:39;98984.16;;;16.42;74.99
61205;BME280;47068;55.780;37.520;2023-07-13T11:01:52;98973.84;;;16.39;75.34
61205;BME280;47068;55.780;37.520;2023-07-13T11:04:19;98974.72;;;16.33;75.02
61205;BME280;47068;55.780;37.520;2023-07-13T11:06:46;98969.81;;;16.30;74.91
61205;BME280;47068;55.780;37.520;2023-07-13T11:12:06;98971.72;;;16.23;75.47
61205;BME280;47068;55.780;37.520;2023-07-13T11:14:36;98965.31;;;16.24;75.82
61205;BME280;47068;55.780;37.520;2023-07-13T11:19:47;98966.97;;;16.25;75.90
61205;BME280;47068;55.780;37.520;2023-07-13T11:22:16;98962.84;;;16.22;75.82
61205;BME280;47068;55.780;37.520;2023-07-13T11:24:52;98960.75;;;16.24;76.08
61205;BME280;47068;55.780;37.520;2023-07-13T11:27:41;98971.88;;;16.28;76.23
61205;BME280;47068;55.780;37.520;2023-07-13T11:38:27;98962.38;;;16.32;76.70
61205;BME280;47068;55.780;37.520;2023-07-13T11:40:53;98958.44;;;16.28;76.73
61205;BME280;47068;55.780;37.520;2023-07-13T11:43:19;98956.59;;;16.28;77.30
61205;BME280;47068;55.780;37.520;2023-07-13T11:45:48;98960.25;;;16.34;77.32
61205;BME280;47068;55.780;37.520;2023-07-13T11:48:21;98958.19;;;16.36;77.23
61205;BME280;47068;55.780;37.520;2023-07-13T11:50:54;98962.94;;;16.34;77.57
61205;BME280;47068;55.780;37.520;2023-07-13T11:53:20;98965.63;;;16.34;77.55
61205;BME280;47068;55.780;37.520;2023-07-13T11:55:46;98965.06;;;16.25;77.73
61205;BME280;47068;55.780;37.520;2023-07-13T11:58:14;98959.31;;;16.22;78.03
61205;BME280;47068;55.780;37.520;2023-07-13T12:00:42;98965.06;;;16.25;78.37
61205;BME280;47068;55.780;37.520;2023-07-13T12:03:07;98961.91;;;16.35;78.25
61205;BME280;47068;55.780;37.520;2023-07-13T12:05:34;98960.25;;;16.34;78.31
61205;BME280;47068;55.780;37.520;2023-07-13T12:07:59;98963.56;;;16.36;78.17
61205;BME280;47068;55.780;37.520;2023-07-13T12:10:33;98966.44;;;16.34;77.99
61205;BME280;47068;55.780;37.520;2023-07-13T12:13:00;98970.34;;;16.38;77.68
61205;BME280;47068;55.780;37.520;2023-07-13T12:15:44;98972.03;;;16.33;76.88
61205;BME280;47068;55.780;37.520;2023-07-13T12:18:15;98976.81;;;16.31;77.30
61205;BME280;47068;55.780;37.520;2023-07-13T12:20:41;98971.88;;;16.28;77.84
61205;BME280;47068;55.780;37.520;2023-07-13T12:23:14;98969.34;;;16.33;77.96
61205;BME280;47068;55.780;37.520;2023-07-13T12:25:45;98966.25;;;16.36;78.33
61205;BME280;47068;55.780;37.520;2023-07-13T12:28:30;98963.09;;;16.39;78.13
61205;BME280;47068;55.780;37.520;2023-07-13T12:31:00;98951.56;;;16.38;78.05
61205;BME280;47068;55.780;37.520;2023-07-13T12:33:27;98947.66;;;16.34;78.15
61205;BME280;47068;55.780;37.520;2023-07-13T12:35:53;98954.88;;;16.34;78.06
61205;BME280;47068;55.780;37.520;2023-07-13T12:38:18;98953.25;;;16.33;78.29
61205;BME280;47068;55.780;37.520;2023-07-13T12:40:48;98950.19;;;16.29;78.55
61205;BME280;47068;55.780;37.520;2023-07-13T12:43:14;98949.97;;;16.31;78.45
61205;BME280;47068;55.780;37.520;2023-07-13T12:45:54;98946.25;;;16.32;78.69
61205;BME280;47068;55.780;37.520;2023-07-13T12:48:20;98953.25;;;16.33;78.22
61205;BME280;47068;55.780;37.520;2023-07-13T12:50:47;98952.22;;;16.34;78.31
61205;BME280;47068;55.780;37.520;2023-07-13T12:53:16;98953.69;;;16.30;77.88
61205;BME280;47068;55.780;37.520;2023-07-13T12:55:42;98945.75;;;16.17;76.28
61205;BME280;47068;55.780;37.520;2023-07-13T12:58:10;98940.59;;;16.15;76.95
61205;BME280;47068;55.780;37.520;2023-07-13T13:00:39;98940.97;;;16.19;77.54
61205;BME280;47068;55.780;37.520;2023-07-13T13:03:12;98948.81;;;16.20;77.83
61205;BME280;47068;55.780;37.520;2023-07-13T13:05:43;98943.22;;;16.22;77.69
61205;BME280;47068;55.780;37.520;2023-07-13T13:08:13;98945.28;;;16.20;77.89
61205;BME280;47068;55.780;37.520;2023-07-13T13:10:38;98939.09;;;16.19;78.19
61205;BME280;47068;55.780;37.520;2023-07-13T13:13:04;98940.97;;;16.19;78.09
61205;BME280;47068;55.780;37.520;2023-07-13T13:15:29;98951.94;;;16.17;78.18
61205;BME280;47068;55.780;37.520;2023-07-13T13:17:55;98953.78;;;16.17;78.09
61205;BME280;47068;55.780;37.520;2023-07-13T13:20:21;98947.41;;;16.18;78.10